• Join FlightAware (Why Join?)
  • Login
  • US Flag 
12:25PM EDT


 

Airport Tracker/Info


-or-


 

Live Flight TrackerFlight Track Log ✈ KAL1337 ✈ 03-Apr-2014 ✈ RKSS / GMP - RKJY / RSU

Flight Track Log - Related Links

Times and Time Zones

All times are in EDT time to prevent confusion due to time zone crossing. See the KAL1337 flight status page for this flight to view local times or setup timezone preferences in your user account.

Time Position Orientation Groundspeed Altitude Reporting Facility
EDT Latitude Longitude Course Direction KTS MPH feet Rate Location/Type
03:50AM 37.2949 126.8731 166° South  Level Estimated
03:51AM 37.2071 126.9005 166° South  Level Estimated
03:51AM 37.5432 126.6150 165° South 288 331 9,200  Level FlightAware ADS-B (SBCF / CNF)
03:51AM 37.4962 126.6284 167° South 291 335 10,700 3,600 Climbing FlightAware ADS-B (SBCF / CNF)
03:53AM 37.3390 126.6676 171° South 321 369 17,600 3,540 Climbing FlightAware ADS-B (SBCF / CNF)
03:53AM 37.3259 126.6678 187° South 318 366 17,800 1,200 Climbing FlightAware ADS-B (SBCF / CNF)
03:53AM 37.3100 126.6631 201° Southwest 316 364 18,000 180 Climbing FlightAware ADS-B (SBCF / CNF)
03:54AM 37.2520 126.6225 210° Southwest 314 361 18,000  Level FlightAware ADS-B (SBCF / CNF)
03:55AM 37.2082 126.5908 211° Southwest 313 360 18,000 1,080 Level FlightAware ADS-B (SBCF / CNF)
03:55AM 37.1707 126.5636 210° Southwest 316 364 19,100 2,040 Climbing FlightAware ADS-B (SBCF / CNF)
03:56AM 37.1346 126.5379 210° Southwest 323 372 20,000 960 Climbing FlightAware ADS-B (SBCF / CNF)
03:56AM 37.0999 126.5165 196° South 329 379 20,000  Level FlightAware ADS-B (SBCF / CNF)
03:56AM 37.0827 126.5132 185° South 335 386 20,000  Level FlightAware ADS-B (SBCF / CNF)
03:57AM 37.0698 126.5138 171° South 344 396 20,000  Level FlightAware ADS-B (SBCF / CNF)
03:59AM 36.9009 126.5997 158° South  Level Estimated
04:00AM 36.8142 126.6435 158° South  Level Estimated
04:01AM 36.7276 126.6873 158° South  Level Estimated
04:02AM 36.6409 126.7310 158° South  Level Estimated
04:03AM 36.5542 126.7746 158° South  Level Estimated
04:04AM 36.4674 126.8180 158° South  Level Estimated
04:05AM 36.3807 126.8614 158° South  Level Estimated
04:06AM 36.2940 126.9047 158° South  Level Estimated
04:07AM 36.2072 126.9479 158° South  Level Estimated
04:08AM 36.1204 126.9910 158° South  Level Estimated
04:09AM 36.0336 127.0340 158° South  Level Estimated
04:10AM 35.9468 127.0769 158° South  Level Estimated
04:11AM 35.8600 127.1197 158° South  Level Estimated
04:12AM 35.7732 127.1624 158° South  Level Estimated
04:13AM 35.6863 127.2051 158° South  Level Estimated
04:14AM 35.5994 127.2476 158° South  Level Estimated
04:15AM 35.5126 127.2900 158° South  Level Estimated
04:16AM 35.4257 127.3324 158° South  Level Estimated
04:17AM 35.3387 127.3746 158° South  Level Estimated
04:18AM 35.2518 127.4168 158° South  Level Estimated
04:19AM 35.1649 127.4589 158° South  Level Estimated
04:20AM 35.0779 127.5009 158° South  Level Estimated
04:21AM 34.9909 127.5428 158° South  Level Estimated
04:22AM 34.9039 127.5846 158° South  Level Estimated
04:23AM 34.8398 127.6153 159° South  Level Estimated
04:24AM 34.8398 127.6153 North  Level Estimated
04:25AM 34.8398 127.6153 North  Level Estimated
04:26AM 34.8398 127.6153 North  Level Estimated
04:27AM 34.8398 127.6153 North  Level Estimated
04:28AM 34.8398 127.6153 North  Level Estimated
04:29AM 34.8398 127.6153 North  Level Estimated
04:30AM 34.8398 127.6153 North  Level Estimated
04:31AM 34.8398 127.6153 North  Level Estimated
04:32AM 34.8398 127.6153 North  Level Estimated
04:33AM 34.8398 127.6153 North  Level Estimated